< < Back
Terminal Aerodrome Forecast


Current Version              Previous Versions:   1  2  3  4  5  6  7  8  9  

Terminal Aerodrome Forecast

052
FTUS42 KTAE 310000 CCA
TAFTLH
TAF COR
KTLH 310036Z 3100/3124 VRB04KT P6SM SCT050
     FM311800 22007KT P6SM BKN050 BKN250
      AMD NOT SKED AFT 310300=



Latest METAR

236
SAUS80 KWBC 311100 RRA
MTRTLH
METAR KTLH 311053Z 35004KT 10SM FEW150 SCT250 18/16 A2999 RMK AO2 SLP155
T01830161 PNO


USA.gov is the U.S. government's official web portal to all federal, state and local government web resources and services.